Pagina principale
METAR-TAF:

METAR-TAF

Aeroporti :

Pola, Croazia

Aeroporto di Pola

latitudine: 44-54N, longitudine: 013-55E, altezza: 63 m

Osservazione

Il bollettino è stato emesso 6 minuti fa, alle 09:30 UTC
Vento 7 kt da sud-est, variando fra est e sud
Temperature 24°C
Umidità 47%
Pressione 1018 hPa
Visibilità 10 km o più
nessuna nube inferiore a 1500 m e nessun cumulonembo

METAR: LDPL 290930Z 13007KT 090V170 CAVOK 24/12 Q1018 NOSIG

Ora: 11:36 (09:36 UTC)

Previsione

Il bollettino è stato emesso 4 ore e 11 minuti fa, alle 05:25 UTC
Previsione valida dal 29 alle 06 UTC al 30 alle 06 UTC
Vento 2 kt da direzioni variabili
Visibilità 10 km o più
nessuna nube inferiore a 1500 m e nessun cumulonembo
Temporaneamente
dal 29 alle 12 UTC al 29 alle 17 UTC
Vento 7 kt da ovest/sud-ovest

TAF: LDPL 290525Z 2906/3006 VRB02KT CAVOK TX27/2912Z TN17/3002Z TEMPO 2912/2917 24007KT

Osservazioni e previsioni meteorologiche di più di 4000 aeroporti (messaggi METAR e TAF).

Le stazioni disponibili sono rappresentate dai dischi gialli e rossi sulla carta.

Puntare il mouse per vedere il nome della stazione.

Clicca sopra per visualizzare le osservazioni e previsioni meteorologiche.

Per cambiare la mappa : fare clic sui pulsanti verdi con una croce nera per ingrandire, il pulsante verde con un trattino per diminuire, o sulla freccia verde per le mappe adiacenti.


METAR-TAF: